createdAt,value
2019-06-27T00:09:15.287Z,21.03
2019-06-27T00:19:15.987Z,20.00
2019-06-27T00:29:16.825Z,17.90
2019-06-27T00:39:17.824Z,17.40
2019-06-27T00:49:18.498Z,16.10
2019-06-27T00:59:19.943Z,17.37
2019-06-27T01:09:20.591Z,16.90
2019-06-27T01:19:21.656Z,16.33
2019-06-27T01:29:22.783Z,15.30
2019-06-27T01:39:23.652Z,13.80
2019-06-27T01:49:24.439Z,13.33
2019-06-27T01:59:25.280Z,13.07
2019-06-27T02:09:26.181Z,12.00
2019-06-27T02:19:27.221Z,11.37
2019-06-27T02:29:27.966Z,11.47
2019-06-27T02:39:28.883Z,12.40
2019-06-27T02:49:29.791Z,11.57
2019-06-27T02:59:30.519Z,11.70
2019-06-27T03:09:31.582Z,12.20
2019-06-27T03:19:32.352Z,12.47
2019-06-27T03:29:50.878Z,12.17
2019-06-27T03:39:52.067Z,12.60
2019-06-27T03:49:53.290Z,11.07
2019-06-27T03:59:54.226Z,12.03
2019-06-27T04:09:55.383Z,11.77
2019-06-27T04:19:58.820Z,11.57
2019-06-27T04:29:59.751Z,11.20
2019-06-27T04:40:00.790Z,10.70
2019-06-27T04:50:01.874Z,10.73
2019-06-27T05:00:03.995Z,10.00
2019-06-27T05:10:05.391Z,10.70
2019-06-27T05:20:06.315Z,10.13
2019-06-27T05:30:10.075Z,10.33
2019-06-27T05:40:10.522Z,9.53
2019-06-27T05:50:11.700Z,9.20
2019-06-27T06:00:27.329Z,9.73
2019-06-27T06:10:19.260Z,9.13
2019-06-27T06:20:20.577Z,8.90
2019-06-27T06:30:21.460Z,7.37
2019-06-27T06:40:22.524Z,6.40
2019-06-27T06:50:23.656Z,7.10
2019-06-27T07:00:24.759Z,6.83
2019-06-27T07:10:25.739Z,6.40
2019-06-27T07:20:26.814Z,7.97
2019-06-27T07:30:27.683Z,5.70
2019-06-27T07:40:28.758Z,5.43
2019-06-27T07:50:29.722Z,5.50
2019-06-27T08:00:30.718Z,4.70
2019-06-27T08:10:31.469Z,5.57
2019-06-27T08:20:32.425Z,4.30
2019-06-27T08:30:33.394Z,4.50
2019-06-27T08:40:34.303Z,4.27
2019-06-27T08:50:34.987Z,4.63
2019-06-27T09:00:36.223Z,4.23
2019-06-27T09:10:37.148Z,3.90
2019-06-27T09:20:38.049Z,3.53
2019-06-27T09:30:39.112Z,3.53
2019-06-27T09:40:40.031Z,3.20
2019-06-27T09:50:41.021Z,2.90
2019-06-27T10:00:41.918Z,3.30
2019-06-27T10:10:43.019Z,3.00
2019-06-27T10:20:43.710Z,3.10
2019-06-27T10:30:44.781Z,3.10
2019-06-27T10:40:45.687Z,2.70
2019-06-27T10:50:46.886Z,2.70
2019-06-27T11:00:47.968Z,2.83
2019-06-27T11:10:49.176Z,2.33
2019-06-27T11:20:50.381Z,2.17
2019-06-27T11:30:51.253Z,2.20
2019-06-27T11:40:52.120Z,2.17
2019-06-27T11:50:53.142Z,2.13
2019-06-27T12:00:54.105Z,1.60
2019-06-27T12:10:55.043Z,1.47
2019-06-27T12:20:55.979Z,1.40
2019-06-27T12:30:57.030Z,1.60
2019-06-27T12:40:58.087Z,1.70
2019-06-27T13:01:43.085Z,0.60
2019-06-27T13:11:44.010Z,1.10
2019-06-27T13:21:45.345Z,0.60
2019-06-27T13:31:49.210Z,0.57
2019-06-27T13:41:50.107Z,0.60
2019-06-27T14:02:34.557Z,0.60
2019-06-27T14:12:38.155Z,0.80
2019-06-27T14:22:38.927Z,0.50
2019-06-27T14:32:39.554Z,0.50
2019-06-27T14:42:40.259Z,0.50
2019-06-27T14:52:40.942Z,0.50
2019-06-27T15:02:41.592Z,0.50
2019-06-27T15:12:56.400Z,0.60
2019-06-27T15:22:46.283Z,0.60
2019-06-27T15:32:47.444Z,0.60
2019-06-27T15:42:49.180Z,0.70
2019-06-27T15:52:49.868Z,0.53
2019-06-27T16:02:53.409Z,0.80
2019-06-27T16:12:55.027Z,1.30
2019-06-27T16:23:05.414Z,0.90
2019-06-27T16:33:06.238Z,0.97
2019-06-27T16:43:09.988Z,1.10
2019-06-27T16:53:10.818Z,1.23
2019-06-27T17:03:11.590Z,1.40
2019-06-27T17:13:12.479Z,1.40
2019-06-27T17:23:13.212Z,1.67
2019-06-27T17:33:13.882Z,1.33
2019-06-27T17:43:14.528Z,1.27
2019-06-27T17:53:15.189Z,1.10
2019-06-27T18:03:15.878Z,0.80
2019-06-27T18:13:16.501Z,1.20
2019-06-27T18:23:17.249Z,1.20
2019-06-27T18:33:17.910Z,0.90
2019-06-27T18:43:18.623Z,1.20
2019-06-27T18:53:19.547Z,1.20
2019-06-27T19:03:20.445Z,3.73
2019-06-27T19:13:21.453Z,0.80
2019-06-27T19:23:22.098Z,0.80
2019-06-27T19:33:22.989Z,0.80
2019-06-27T19:43:28.029Z,1.03
2019-06-27T19:53:27.074Z,0.80
2019-06-27T20:03:27.749Z,0.73
2019-06-27T20:13:28.633Z,0.50
2019-06-27T20:23:30.279Z,0.60
2019-06-27T20:33:31.029Z,0.97
2019-06-27T20:43:32.248Z,0.73
2019-06-27T20:53:33.440Z,0.80
2019-06-27T21:03:37.420Z,1.00
2019-06-27T21:13:38.088Z,0.90
2019-06-27T21:23:38.991Z,0.87
2019-06-27T21:33:39.739Z,0.93
2019-06-27T21:43:40.400Z,1.17
2019-06-27T21:53:41.266Z,1.20
2019-06-27T22:03:42.062Z,1.30
2019-06-27T22:13:42.704Z,1.17
2019-06-27T22:23:43.613Z,1.37
2019-06-27T22:33:45.339Z,1.57
2019-06-27T22:43:46.220Z,1.30
2019-06-27T22:53:47.090Z,1.20
2019-06-27T23:03:47.742Z,1.53
2019-06-27T23:13:48.399Z,1.67
2019-06-27T23:23:49.502Z,1.60
2019-06-27T23:33:53.171Z,1.60
2019-06-27T23:43:53.899Z,1.50
2019-06-27T23:53:57.710Z,1.53
